Time;durP1;ratioP1;P1;durP2;ratioP2;P2;SDS_P1;SDS_P2;PMS_P1;PMS_P2;Temp;Humidity;BMP_temperature;BMP_pressure;BME280_temperature;BME280_humidity;BME280_pressure;Samples;Min_cycle;Max_cycle;Signal;HPM_P1;HPM_P2
2021/08/28 00:01:37;;;;;;;3.10;0.57;;;15.50;99.90;;;;;;5075882;28;20204;-81
2021/08/28 00:04:02;;;;;;;0.20;0.20;;;15.50;99.90;;;;;;5074641;28;20192;-81
2021/08/28 00:06:28;;;;;;;0.50;0.50;;;15.60;99.90;;;;;;5073265;28;20237;-81
2021/08/28 00:08:53;;;;;;;0.40;0.40;;;15.60;99.90;;;;;;5077725;28;20187;-81
2021/08/28 00:11:21;;;;;;;0.43;0.43;;;15.60;99.90;;;;;;5060445;28;20209;-80
2021/08/28 00:13:47;;;;;;;2.33;0.60;;;15.50;99.90;;;;;;5069035;28;20212;-81
2021/08/28 00:16:12;;;;;;;0.50;0.50;;;15.40;99.90;;;;;;5070832;28;20179;-80
2021/08/28 00:18:38;;;;;;;0.50;0.50;;;15.40;99.90;;;;;;5066621;28;20188;-82
2021/08/28 00:21:04;;;;;;;0.50;0.50;;;15.40;99.90;;;;;;5074262;28;20583;-81
2021/08/28 00:23:29;;;;;;;0.20;0.20;;;15.30;99.90;;;;;;5074083;28;20210;-81
2021/08/28 00:25:55;;;;;;;0.37;0.37;;;15.20;99.90;;;;;;5068464;28;20196;-82
2021/08/28 00:28:20;;;;;;;0.60;0.60;;;15.10;99.90;;;;;;5065491;28;20200;-81
2021/08/28 00:30:46;;;;;;;0.50;0.50;;;15.10;99.90;;;;;;5071611;28;20199;-81
2021/08/28 00:33:14;;;;;;;0.30;0.30;;;15.20;99.90;;;;;;5070384;28;20243;-81
2021/08/28 00:35:40;;;;;;;0.43;0.43;;;15.10;99.90;;;;;;5069896;28;20197;-82
2021/08/28 00:38:06;;;;;;;0.20;0.20;;;15.10;99.90;;;;;;5068127;28;20217;-82
2021/08/28 00:40:33;;;;;;;0.53;0.53;;;15.10;99.90;;;;;;5069877;28;20188;-81
2021/08/28 00:42:59;;;;;;;0.93;0.47;;;15.10;99.90;;;;;;5068465;28;20260;-81
2021/08/28 00:45:29;;;;;;;0.57;0.40;;;15.10;99.90;;;;;;5063675;28;20211;-82
2021/08/28 00:48:03;;;;;;;0.40;0.40;;;15.10;99.90;;;;;;5077945;28;20183;-80
2021/08/28 00:50:29;;;;;;;0.13;0.13;;;15.00;99.90;;;;;;5076761;28;20195;-81
2021/08/28 00:52:55;;;;;;;0.60;0.60;;;15.10;99.90;;;;;;5090573;28;20295;-82
2021/08/28 00:55:29;;;;;;;0.30;0.30;;;15.10;99.90;;;;;;5067695;28;20198;-81
2021/08/28 00:57:58;;;;;;;0.23;0.23;;;14.90;99.90;;;;;;5076278;28;20205;-80
2021/08/28 01:00:25;;;;;;;0.30;0.30;;;14.90;99.90;;;;;;5068342;28;20190;-81
2021/08/28 01:02:52;;;;;;;0.87;0.73;;;14.80;99.90;;;;;;5079407;28;20211;-79
2021/08/28 01:05:35;;;;;;;0.20;0.20;;;14.80;99.90;;;;;;5068904;28;20197;-81
2021/08/28 01:08:03;;;;;;;0.43;0.43;;;14.70;99.90;;;;;;5075520;28;20259;-81
2021/08/28 01:10:36;;;;;;;0.20;0.20;;;14.80;99.90;;;;;;5067538;28;20192;-81
2021/08/28 01:13:08;;;;;;;2.57;0.30;;;14.80;99.90;;;;;;5076445;28;20297;-81
2021/08/28 01:15:37;;;;;;;0.27;0.27;;;14.90;99.90;;;;;;5066604;28;20199;-80
2021/08/28 01:18:04;;;;;;;0.17;0.17;;;14.90;99.90;;;;;;5078072;28;20252;-80
2021/08/28 01:20:36;;;;;;;0.83;0.33;;;15.00;99.90;;;;;;5068615;28;20546;-81
2021/08/28 01:23:04;;;;;;;0.43;0.40;;;15.10;99.90;;;;;;5068831;28;20212;-82
2021/08/28 01:25:30;;;;;;;0.93;0.50;;;15.20;99.90;;;;;;5078314;28;20253;-81
2021/08/28 01:28:05;;;;;;;0.20;0.20;;;15.30;99.90;;;;;;5078425;28;20564;-82
2021/08/28 01:30:32;;;;;;;0.30;0.30;;;15.40;99.90;;;;;;5071572;28;20190;-81
2021/08/28 01:32:59;;;;;;;0.60;0.60;;;15.40;99.90;;;;;;5061649;28;20235;-80
2021/08/28 01:35:25;;;;;;;0.33;0.33;;;15.50;99.90;;;;;;5062400;28;20201;-82
2021/08/28 01:37:52;;;;;;;0.23;0.23;;;15.40;99.90;;;;;;5071280;28;20194;-82
2021/08/28 01:40:19;;;;;;;1.10;0.60;;;15.40;99.90;;;;;;5070904;28;20620;-82
2021/08/28 01:42:46;;;;;;;0.60;0.60;;;15.40;99.90;;;;;;5067069;28;20203;-81
2021/08/28 01:45:15;;;;;;;0.43;0.43;;;15.40;99.90;;;;;;5071910;28;20206;-82
2021/08/28 01:47:42;;;;;;;0.50;0.50;;;15.40;99.90;;;;;;5068383;28;20269;-82
2021/08/28 01:50:09;;;;;;;0.30;0.30;;;15.30;99.90;;;;;;5070544;28;20283;-82
2021/08/28 01:52:35;;;;;;;0.20;0.20;;;15.40;99.90;;;;;;5073231;28;20214;-81
2021/08/28 01:55:01;;;;;;;0.30;0.30;;;15.40;99.90;;;;;;5073927;28;20208;-81
2021/08/28 01:57:29;;;;;;;0.20;0.20;;;15.40;99.90;;;;;;5067130;28;20180;-82
2021/08/28 01:59:55;;;;;;;0.53;0.53;;;15.30;99.90;;;;;;5065174;28;20248;-81
2021/08/28 02:02:20;;;;;;;0.43;0.43;;;15.30;99.90;;;;;;5072899;28;20269;-82
2021/08/28 02:04:46;;;;;;;0.20;0.20;;;15.30;99.90;;;;;;5061423;28;20568;-81
2021/08/28 02:07:12;;;;;;;0.17;0.17;;;15.30;99.90;;;;;;5075644;28;20212;-82
2021/08/28 02:09:48;;;;;;;0.77;0.70;;;15.20;99.90;;;;;;5061456;28;20191;-81
2021/08/28 02:12:47;;;;;;;0.27;0.20;;;15.20;99.90;;;;;;5072722;28;20223;-82
2021/08/28 02:15:18;;;;;;;0.17;0.17;;;15.20;99.90;;;;;;5068781;28;20196;-81
2021/08/28 02:18:07;;;;;;;0.23;0.23;;;15.20;99.90;;;;;;5075414;28;20179;-81
2021/08/28 02:20:41;;;;;;;0.30;0.30;;;15.20;99.90;;;;;;5072874;28;20757;-81
2021/08/28 02:23:12;;;;;;;0.20;0.20;;;15.10;99.90;;;;;;5075322;28;20198;-81
2021/08/28 02:26:04;;;;;;;0.53;0.20;;;15.10;99.90;;;;;;5097010;28;20267;-80
2021/08/28 02:28:45;;;;;;;0.30;0.30;;;15.00;99.90;;;;;;5074727;28;20247;-82
2021/08/28 02:31:12;;;;;;;1.03;0.80;;;15.00;99.90;;;;;;5076124;28;20583;-81
2021/08/28 02:33:38;;;;;;;0.20;0.20;;;15.00;99.90;;;;;;5076458;28;20657;-80
2021/08/28 02:36:06;;;;;;;4.83;0.40;;;15.00;99.90;;;;;;5066854;28;20196;-80
2021/08/28 02:38:32;;;;;;;0.20;0.20;;;15.00;99.90;;;;;;5074132;28;20220;-81
2021/08/28 02:41:01;;;;;;;0.40;0.40;;;15.00;99.90;;;;;;5073313;28;20229;-79
2021/08/28 02:43:28;;;;;;;0.67;0.50;;;14.90;99.90;;;;;;5070474;28;20223;-82
2021/08/28 02:45:55;;;;;;;0.27;0.27;;;14.90;99.90;;;;;;5074063;28;20302;-82
2021/08/28 02:48:24;;;;;;;0.20;0.20;;;14.90;99.90;;;;;;5073193;28;20642;-81
2021/08/28 02:50:52;;;;;;;1.17;0.40;;;14.90;99.90;;;;;;5075370;28;20661;-82
2021/08/28 02:53:20;;;;;;;0.40;0.40;;;14.80;99.90;;;;;;5069330;28;20687;-85
2021/08/28 02:55:48;;;;;;;0.40;0.40;;;14.80;99.90;;;;;;5069116;28;20224;-85
2021/08/28 02:58:15;;;;;;;0.80;0.77;;;14.80;99.90;;;;;;5068292;28;20806;-83
2021/08/28 03:00:42;;;;;;;0.30;0.30;;;14.70;99.90;;;;;;5055927;28;20239;-83
2021/08/28 03:03:11;;;;;;;0.40;0.40;;;14.60;99.90;;;;;;5064130;28;20206;-83
2021/08/28 03:05:38;;;;;;;0.50;0.50;;;14.40;99.90;;;;;;5082550;28;20352;-82
2021/08/28 03:08:07;;;;;;;0.53;0.53;;;14.20;99.90;;;;;;5077998;28;20584;-82
2021/08/28 03:10:33;;;;;;;0.27;0.27;;;14.10;99.90;;;;;;5070028;28;20653;-82
2021/08/28 03:12:58;;;;;;;0.43;0.43;;;14.10;99.90;;;;;;5068054;28;20241;-81
2021/08/28 03:15:24;;;;;;;0.50;0.50;;;14.10;99.90;;;;;;5066023;28;20194;-82
2021/08/28 03:17:50;;;;;;;0.20;0.20;;;14.10;99.90;;;;;;5069165;28;20186;-82
2021/08/28 03:20:17;;;;;;;0.20;0.20;;;14.20;99.90;;;;;;5074688;28;20210;-82
2021/08/28 03:22:45;;;;;;;0.30;0.30;;;14.20;99.90;;;;;;5068713;28;20577;-83
2021/08/28 03:25:12;;;;;;;0.27;0.27;;;14.30;99.90;;;;;;5072750;28;20568;-82
2021/08/28 03:27:40;;;;;;;0.63;0.47;;;14.40;99.90;;;;;;5070515;28;20676;-82
2021/08/28 03:30:09;;;;;;;0.93;0.40;;;14.50;99.90;;;;;;5066843;28;20729;-82
2021/08/28 03:32:35;;;;;;;0.43;0.30;;;14.60;99.90;;;;;;5069663;28;20214;-83
2021/08/28 03:35:03;;;;;;;0.63;0.40;;;14.70;99.90;;;;;;5072365;28;20186;-83
2021/08/28 03:37:28;;;;;;;0.93;0.63;;;14.70;99.90;;;;;;5069195;28;20785;-82
2021/08/28 03:39:55;;;;;;;0.20;0.20;;;14.70;99.90;;;;;;5073637;28;20274;-82
2021/08/28 03:42:21;;;;;;;0.30;0.30;;;14.70;99.90;;;;;;5071484;28;20216;-83
2021/08/28 03:44:46;;;;;;;0.57;0.53;;;14.70;99.90;;;;;;5073059;28;20194;-82
2021/08/28 03:47:16;;;;;;;0.23;0.23;;;14.70;99.90;;;;;;5065579;28;20818;-82
2021/08/28 03:49:42;;;;;;;0.20;0.20;;;14.70;99.90;;;;;;5073322;28;20213;-81
2021/08/28 03:52:07;;;;;;;0.50;0.40;;;14.70;99.90;;;;;;5068656;28;20632;-82
2021/08/28 03:54:33;;;;;;;0.20;0.20;;;14.70;99.90;;;;;;5069921;28;20202;-82
2021/08/28 03:56:59;;;;;;;0.40;0.40;;;14.60;99.90;;;;;;5074249;28;20183;-82
2021/08/28 03:59:24;;;;;;;0.23;0.23;;;14.70;99.90;;;;;;5073246;28;20272;-82
2021/08/28 04:01:50;;;;;;;0.20;0.20;;;14.70;99.90;;;;;;5078253;28;20193;-82
2021/08/28 04:04:16;;;;;;;0.37;0.37;;;14.70;99.90;;;;;;5076534;28;20237;-82
2021/08/28 04:06:41;;;;;;;0.40;0.40;;;14.70;99.90;;;;;;5070992;28;20183;-82
2021/08/28 04:09:07;;;;;;;0.10;0.10;;;14.70;99.90;;;;;;5069069;28;20186;-83
2021/08/28 04:11:33;;;;;;;0.57;0.27;;;14.70;99.90;;;;;;5072840;28;20270;-83
2021/08/28 04:13:58;;;;;;;0.30;0.30;;;14.70;99.90;;;;;;5070686;28;20187;-83
2021/08/28 04:16:24;;;;;;;1.40;0.30;;;14.60;99.90;;;;;;5064998;28;20186;-81
2021/08/28 04:18:49;;;;;;;0.97;0.70;;;14.40;99.90;;;;;;5084036;28;20203;-82
2021/08/28 04:21:15;;;;;;;0.50;0.50;;;14.30;99.90;;;;;;5070882;28;20201;-82
2021/08/28 04:23:41;;;;;;;0.10;0.10;;;14.20;99.90;;;;;;5057955;28;20220;-82
2021/08/28 04:26:06;;;;;;;0.40;0.40;;;14.30;99.90;;;;;;5064741;28;20200;-82
2021/08/28 04:28:32;;;;;;;0.70;0.60;;;14.20;99.90;;;;;;5056150;28;20269;-82
2021/08/28 04:30:57;;;;;;;0.47;0.37;;;14.00;99.90;;;;;;5068575;28;20289;-82
2021/08/28 04:33:23;;;;;;;0.53;0.50;;;14.00;99.90;;;;;;5070649;28;20219;-83
2021/08/28 04:35:49;;;;;;;0.27;0.27;;;14.10;99.90;;;;;;5067149;28;20194;-82
2021/08/28 04:38:14;;;;;;;0.20;0.20;;;14.10;99.90;;;;;;5074006;28;20190;-82
2021/08/28 04:40:40;;;;;;;0.37;0.30;;;14.20;99.90;;;;;;5067550;28;20185;-81
2021/08/28 04:43:05;;;;;;;0.30;0.30;;;14.30;99.90;;;;;;5071690;28;20235;-82
2021/08/28 04:45:31;;;;;;;0.10;0.10;;;14.30;99.90;;;;;;5065562;28;20193;-82
2021/08/28 04:47:57;;;;;;;0.67;0.37;;;14.40;99.90;;;;;;5072194;28;20275;-85
2021/08/28 04:50:22;;;;;;;0.20;0.20;;;14.50;99.90;;;;;;5063027;28;20217;-84
2021/08/28 04:52:48;;;;;;;1.07;0.80;;;14.50;99.90;;;;;;5066062;28;20214;-87
2021/08/28 04:55:14;;;;;;;0.20;0.20;;;14.60;99.90;;;;;;5065124;28;20273;-87
2021/08/28 04:57:39;;;;;;;0.10;0.10;;;14.70;99.90;;;;;;5075139;28;20235;-82
2021/08/28 05:00:05;;;;;;;0.40;0.40;;;14.70;99.90;;;;;;5071693;28;20186;-82
2021/08/28 05:02:31;;;;;;;0.20;0.20;;;14.80;99.90;;;;;;5076800;28;20208;-82
2021/08/28 05:04:56;;;;;;;0.30;0.30;;;14.70;99.90;;;;;;5075618;28;20857;-82
2021/08/28 05:07:22;;;;;;;0.63;0.63;;;14.70;99.90;;;;;;5078497;28;20273;-82
2021/08/28 05:09:47;;;;;;;0.10;0.10;;;14.80;99.90;;;;;;5074563;28;20187;-83
2021/08/28 05:12:13;;;;;;;0.20;0.20;;;14.80;99.90;;;;;;5076532;28;20207;-83
2021/08/28 05:14:39;;;;;;;0.70;0.57;;;14.90;99.90;;;;;;5076919;28;20173;-83
2021/08/28 05:17:05;;;;;;;0.40;0.40;;;14.90;99.90;;;;;;5077499;28;20205;-82
2021/08/28 05:19:31;;;;;;;0.53;0.40;;;15.10;99.90;;;;;;5064001;28;20268;-82
2021/08/28 05:21:57;;;;;;;0.10;0.10;;;15.10;99.90;;;;;;5061747;28;20243;-86
2021/08/28 05:24:23;;;;;;;0.20;0.20;;;15.10;99.90;;;;;;5059297;28;20697;-82
2021/08/28 05:26:48;;;;;;;0.40;0.30;;;15.10;99.90;;;;;;5062204;28;20196;-82
2021/08/28 05:29:14;;;;;;;0.60;0.20;;;15.20;99.90;;;;;;5071946;28;20191;-82
2021/08/28 05:31:40;;;;;;;0.20;0.20;;;15.30;99.90;;;;;;5074946;28;20215;-82
2021/08/28 05:34:05;;;;;;;0.43;0.43;;;15.30;99.90;;;;;;5075668;28;20188;-82
2021/08/28 05:36:32;;;;;;;0.20;0.20;;;15.00;99.90;;;;;;5059687;28;20179;-84
2021/08/28 05:38:58;;;;;;;0.33;0.30;;;15.00;99.90;;;;;;5066855;28;20984;-83
2021/08/28 05:41:23;;;;;;;0.17;0.17;;;15.20;99.90;;;;;;5066575;28;20202;-84
2021/08/28 05:43:49;;;;;;;0.20;0.20;;;15.30;99.90;;;;;;5063974;28;20183;-86
2021/08/28 05:46:15;;;;;;;0.67;0.30;;;15.40;99.90;;;;;;5065311;28;20593;-85
2021/08/28 05:48:40;;;;;;;0.30;0.30;;;15.40;99.90;;;;;;5069563;28;20177;-84
2021/08/28 05:51:06;;;;;;;0.23;0.17;;;15.30;99.90;;;;;;5065907;28;20260;-86
2021/08/28 05:53:32;;;;;;;0.50;0.50;;;15.20;99.90;;;;;;5069376;28;20234;-85
2021/08/28 05:55:57;;;;;;;0.30;0.30;;;15.10;99.90;;;;;;5066771;28;20270;-85
2021/08/28 05:58:23;;;;;;;0.87;0.57;;;15.20;99.90;;;;;;5070284;28;20179;-86
2021/08/28 06:00:48;;;;;;;0.30;0.30;;;15.40;99.90;;;;;;5066500;28;20179;-86
2021/08/28 06:03:14;;;;;;;0.20;0.20;;;15.50;99.90;;;;;;5068646;28;20723;-86
2021/08/28 06:05:39;;;;;;;0.50;0.50;;;15.60;99.90;;;;;;5070427;28;20210;-85
2021/08/28 06:08:05;;;;;;;0.47;0.30;;;15.70;99.90;;;;;;5070174;28;20187;-85
2021/08/28 06:10:31;;;;;;;0.30;0.30;;;15.70;99.90;;;;;;5067012;28;20181;-86
2021/08/28 06:12:56;;;;;;;0.23;0.23;;;15.60;99.90;;;;;;5070832;28;20712;-83
2021/08/28 06:15:22;;;;;;;0.50;0.50;;;15.60;99.90;;;;;;5069317;28;20244;-82
2021/08/28 06:17:47;;;;;;;0.43;0.43;;;15.50;99.90;;;;;;5076193;28;20187;-82
2021/08/28 06:20:13;;;;;;;1.70;0.30;;;15.60;99.90;;;;;;5077993;28;20190;-83
2021/08/28 06:22:38;;;;;;;0.30;0.30;;;15.60;99.90;;;;;;5077643;28;20919;-83
2021/08/28 06:25:05;;;;;;;0.40;0.20;;;15.60;99.90;;;;;;5077671;28;20573;-83
2021/08/28 06:27:30;;;;;;;0.20;0.20;;;15.50;99.90;;;;;;5077828;28;20194;-82
2021/08/28 06:29:56;;;;;;;0.20;0.20;;;15.60;99.90;;;;;;5078203;28;20190;-82
2021/08/28 06:32:21;;;;;;;0.30;0.30;;;15.70;99.90;;;;;;5079017;28;20220;-83
2021/08/28 06:34:47;;;;;;;1.80;0.30;;;15.70;99.90;;;;;;5079580;28;20325;-83
2021/08/28 06:37:12;;;;;;;0.10;0.10;;;15.70;99.90;;;;;;5079342;28;20195;-82
2021/08/28 06:39:38;;;;;;;0.20;0.20;;;15.50;99.90;;;;;;5078870;28;20674;-81
2021/08/28 06:42:03;;;;;;;0.47;0.43;;;15.40;99.90;;;;;;5079105;28;20674;-82
2021/08/28 06:44:29;;;;;;;0.20;0.20;;;15.40;99.90;;;;;;5077823;28;20187;-83
2021/08/28 06:46:55;;;;;;;3.67;1.07;;;15.30;99.90;;;;;;5078592;28;20198;-83
2021/08/28 06:49:20;;;;;;;0.27;0.27;;;15.20;99.90;;;;;;5079189;28;20186;-82
2021/08/28 06:51:46;;;;;;;0.20;0.20;;;15.10;99.90;;;;;;5076745;28;20213;-83
2021/08/28 06:54:11;;;;;;;0.67;0.50;;;15.10;99.90;;;;;;5077548;28;20211;-83
2021/08/28 06:56:37;;;;;;;0.30;0.30;;;15.00;99.90;;;;;;5074751;28;20190;-83
2021/08/28 06:59:02;;;;;;;0.30;0.30;;;15.10;99.90;;;;;;5071695;28;20236;-82
2021/08/28 07:01:28;;;;;;;0.70;0.70;;;15.10;99.90;;;;;;5075952;28;20222;-82
2021/08/28 07:03:54;;;;;;;0.40;0.40;;;15.00;99.90;;;;;;5078172;28;20213;-83
2021/08/28 07:06:20;;;;;;;0.43;0.43;;;15.00;99.90;;;;;;5078345;28;20841;-83
2021/08/28 07:08:46;;;;;;;0.23;0.23;;;15.00;99.90;;;;;;5075497;28;20183;-83
2021/08/28 07:11:12;;;;;;;1.10;0.57;;;15.00;99.90;;;;;;5076360;28;20578;-83
2021/08/28 07:13:37;;;;;;;0.40;0.40;;;15.10;99.90;;;;;;5077662;28;20215;-82
2021/08/28 07:16:03;;;;;;;0.37;0.37;;;15.10;99.90;;;;;;5076950;28;20194;-82
2021/08/28 07:18:28;;;;;;;0.50;0.50;;;15.00;99.90;;;;;;5074798;28;20187;-82
2021/08/28 07:20:54;;;;;;;0.23;0.23;;;15.10;99.90;;;;;;5077561;28;20213;-83
2021/08/28 07:23:20;;;;;;;0.37;0.37;;;15.00;99.90;;;;;;5076031;28;20187;-83
2021/08/28 07:25:45;;;;;;;0.50;0.50;;;15.00;99.90;;;;;;5075647;28;20230;-83
2021/08/28 07:28:12;;;;;;;0.47;0.47;;;14.90;99.90;;;;;;5076112;28;20275;-81
2021/08/28 07:30:39;;;;;;;0.60;0.60;;;15.00;99.90;;;;;;5075114;28;20281;-83
2021/08/28 07:33:05;;;;;;;0.10;0.10;;;14.90;99.90;;;;;;5074824;28;20210;-83
2021/08/28 07:35:31;;;;;;;0.13;0.13;;;14.90;99.90;;;;;;5076287;28;20193;-83
2021/08/28 07:37:58;;;;;;;0.30;0.30;;;15.00;99.90;;;;;;5075760;28;20208;-83
2021/08/28 07:40:24;;;;;;;0.20;0.20;;;15.00;99.90;;;;;;5074698;28;20624;-82
2021/08/28 07:42:51;;;;;;;0.50;0.50;;;15.30;99.90;;;;;;5074989;28;20211;-82
2021/08/28 07:45:17;;;;;;;0.87;0.43;;;15.30;99.90;;;;;;5076681;28;20224;-83
2021/08/28 07:47:42;;;;;;;0.33;0.27;;;15.40;99.90;;;;;;5076498;28;20183;-83
2021/08/28 07:50:08;;;;;;;0.47;0.47;;;15.50;99.90;;;;;;5074607;28;20718;-82
2021/08/28 07:52:34;;;;;;;0.20;0.20;;;15.70;99.90;;;;;;5074440;28;20243;-83
2021/08/28 07:55:00;;;;;;;0.30;0.30;;;16.10;99.90;;;;;;5074850;28;20183;-83
2021/08/28 07:57:26;;;;;;;0.37;0.30;;;16.40;99.90;;;;;;5073883;28;20222;-81
2021/08/28 07:59:51;;;;;;;0.10;0.10;;;16.80;99.90;;;;;;5074161;28;20801;-83
2021/08/28 08:02:17;;;;;;;0.60;0.27;;;17.00;99.90;;;;;;5073900;28;20204;-82
2021/08/28 08:04:43;;;;;;;0.30;0.30;;;17.20;99.90;;;;;;5075459;28;20193;-83
2021/08/28 08:07:08;;;;;;;0.73;0.33;;;17.40;99.90;;;;;;5075642;28;20199;-82
2021/08/28 08:09:34;;;;;;;0.17;0.17;;;17.60;99.90;;;;;;5073730;28;20629;-83
2021/08/28 08:12:00;;;;;;;0.37;0.37;;;17.70;99.90;;;;;;5074952;28;20233;-82
2021/08/28 08:14:26;;;;;;;0.27;0.20;;;17.80;99.90;;;;;;5074238;28;20640;-83
2021/08/28 08:16:51;;;;;;;0.13;0.13;;;17.70;99.90;;;;;;5075756;28;20231;-83
2021/08/28 08:19:17;;;;;;;0.37;0.37;;;17.70;99.90;;;;;;5076191;28;20252;-83
2021/08/28 08:21:42;;;;;;;0.20;0.17;;;17.40;99.90;;;;;;5076096;28;20664;-81
2021/08/28 08:24:08;;;;;;;0.10;0.10;;;17.10;99.90;;;;;;5073754;28;20259;-83
2021/08/28 08:26:33;;;;;;;0.43;0.43;;;17.40;99.90;;;;;;5075943;28;20242;-83
2021/08/28 08:28:59;;;;;;;0.20;0.20;;;17.20;99.90;;;;;;5075281;28;20189;-83
2021/08/28 08:31:25;;;;;;;0.40;0.40;;;17.20;99.90;;;;;;5074873;28;20208;-83
2021/08/28 08:33:50;;;;;;;0.20;0.20;;;17.40;99.90;;;;;;5072482;28;20271;-83
2021/08/28 08:36:16;;;;;;;0.20;0.20;;;17.70;99.90;;;;;;5073791;28;20663;-83
2021/08/28 08:38:42;;;;;;;0.10;0.10;;;18.20;99.90;;;;;;5074299;28;20181;-83
2021/08/28 08:41:08;;;;;;;0.30;0.30;;;18.70;99.90;;;;;;5072956;28;20211;-83
2021/08/28 08:43:34;;;;;;;0.30;0.30;;;19.10;99.90;;;;;;5072900;28;20196;-83
2021/08/28 08:46:00;;;;;;;0.30;0.30;;;19.00;99.90;;;;;;5074688;28;20196;-82
2021/08/28 08:48:27;;;;;;;0.20;0.20;;;18.80;99.90;;;;;;5075898;28;20189;-83
2021/08/28 08:50:54;;;;;;;0.13;0.13;;;18.70;99.90;;;;;;5075317;28;20189;-83
2021/08/28 08:53:28;;;;;;;0.30;0.30;;;19.30;99.90;;;;;;5075161;28;20331;-82
2021/08/28 08:55:55;;;;;;;0.10;0.10;;;19.70;99.90;;;;;;5074368;28;20630;-83
2021/08/28 08:58:21;;;;;;;0.20;0.20;;;20.30;99.90;;;;;;5073422;28;20185;-83
2021/08/28 09:00:46;;;;;;;0.30;0.30;;;20.90;99.90;;;;;;5073914;28;20189;-83
2021/08/28 09:03:12;;;;;;;2.43;0.40;;;21.20;99.90;;;;;;5077072;28;20696;-83
2021/08/28 09:05:38;;;;;;;0.30;0.30;;;21.10;99.90;;;;;;5077411;28;20622;-82
2021/08/28 09:08:04;;;;;;;0.30;0.30;;;21.10;99.90;;;;;;5076004;28;20185;-83
2021/08/28 09:10:30;;;;;;;0.20;0.20;;;20.90;99.90;;;;;;5076519;28;20258;-83
2021/08/28 09:13:14;;;;;;;0.30;0.30;;;20.80;99.90;;;;;;5077497;28;20620;-83
2021/08/28 09:15:45;;;;;;;0.40;0.40;;;20.70;99.90;;;;;;5077671;28;20263;-82
2021/08/28 09:18:11;;;;;;;0.57;0.30;;;20.70;99.90;;;;;;5076246;28;20181;-83
2021/08/28 09:20:37;;;;;;;0.10;0.10;;;20.60;99.90;;;;;;5076206;28;20276;-83
2021/08/28 09:23:14;;;;;;;0.30;0.30;;;20.60;99.90;;;;;;5075949;28;20190;-83
2021/08/28 09:25:43;;;;;;;0.23;0.23;;;20.50;99.90;;;;;;5077135;28;20280;-83
2021/08/28 09:28:10;;;;;;;0.10;0.10;;;20.40;99.90;;;;;;5077682;28;20191;-83
2021/08/28 09:30:46;;;;;;;0.20;0.20;;;20.40;99.90;;;;;;5075666;28;20189;-83
2021/08/28 09:33:15;;;;;;;0.20;0.20;;;20.50;99.90;;;;;;5080176;28;20212;-82
2021/08/28 09:35:42;;;;;;;0.30;0.30;;;20.40;99.90;;;;;;5077713;28;20184;-83
2021/08/28 09:38:10;;;;;;;0.10;0.10;;;20.50;99.90;;;;;;5078861;28;20177;-83
2021/08/28 09:40:38;;;;;;;0.20;0.20;;;20.30;99.90;;;;;;5078928;28;20185;-83
2021/08/28 09:43:12;;;;;;;0.20;0.20;;;19.50;99.90;;;;;;5079268;28;20181;-82
2021/08/28 09:45:39;;;;;;;0.20;0.20;;;19.40;99.90;;;;;;5078554;28;20211;-83
2021/08/28 09:48:09;;;;;;;0.20;0.20;;;19.50;99.90;;;;;;5077355;28;20188;-81
2021/08/28 09:50:36;;;;;;;0.20;0.20;;;19.50;99.90;;;;;;5072998;28;20185;-83
2021/08/28 09:53:13;;;;;;;0.83;0.43;;;19.10;99.90;;;;;;5078584;28;20209;-83
2021/08/28 09:55:41;;;;;;;0.20;0.20;;;19.20;99.90;;;;;;5077963;28;20193;-83
2021/08/28 09:58:09;;;;;;;0.10;0.10;;;19.30;99.90;;;;;;5077095;28;20211;-83
2021/08/28 10:00:45;;;;;;;0.13;0.13;;;19.40;99.90;;;;;;5077888;28;20185;-82
2021/08/28 10:03:12;;;;;;;0.10;0.10;;;19.50;99.90;;;;;;5077276;28;20215;-83
2021/08/28 10:05:39;;;;;;;0.50;0.50;;;19.60;99.90;;;;;;5076963;28;20195;-83
2021/08/28 10:08:09;;;;;;;0.60;0.50;;;19.60;99.90;;;;;;5077912;28;20185;-83
2021/08/28 10:10:37;;;;;;;0.20;0.20;;;19.50;99.90;;;;;;5077747;28;20186;-83
2021/08/28 10:13:04;;;;;;;0.20;0.20;;;19.50;99.90;;;;;;5077642;28;20206;-83
2021/08/28 10:15:32;;;;;;;0.60;0.60;;;19.40;99.90;;;;;;5076898;28;20241;-83
2021/08/28 10:17:59;;;;;;;0.20;0.20;;;19.30;99.90;;;;;;5076746;28;20245;-82
2021/08/28 10:20:27;;;;;;;0.20;0.20;;;19.30;99.90;;;;;;5077024;28;20186;-83
2021/08/28 10:22:56;;;;;;;0.30;0.30;;;19.20;99.90;;;;;;5077812;28;20580;-82
2021/08/28 10:25:24;;;;;;;0.40;0.40;;;19.20;99.90;;;;;;5075712;28;20653;-82
2021/08/28 10:27:51;;;;;;;0.20;0.20;;;19.00;99.90;;;;;;5076930;28;20174;-83
2021/08/28 10:30:20;;;;;;;0.30;0.30;;;19.00;99.90;;;;;;5076602;28;20574;-81
2021/08/28 10:32:47;;;;;;;0.30;0.30;;;19.00;99.90;;;;;;5076245;28;20208;-83
2021/08/28 10:35:15;;;;;;;0.20;0.20;;;19.10;99.90;;;;;;5077263;28;20545;-83
2021/08/28 10:37:41;;;;;;;0.30;0.30;;;19.20;99.90;;;;;;5075033;28;20190;-83
2021/08/28 10:40:21;;;;;;;0.20;0.20;;;19.30;99.90;;;;;;5075186;28;20185;-83
2021/08/28 10:42:49;;;;;;;0.23;0.23;;;19.40;99.90;;;;;;5076687;28;20603;-83
2021/08/28 10:45:15;;;;;;;0.30;0.30;;;19.40;99.90;;;;;;5076706;28;20209;-83
2021/08/28 10:47:44;;;;;;;0.60;0.60;;;19.60;99.90;;;;;;5076261;28;20179;-83
2021/08/28 10:50:11;;;;;;;0.67;0.60;;;19.50;99.90;;;;;;5076035;28;20296;-83
2021/08/28 10:52:39;;;;;;;0.43;0.33;;;19.40;99.90;;;;;;5075932;28;20201;-83
2021/08/28 10:55:14;;;;;;;0.20;0.20;;;19.30;99.90;;;;;;5075145;28;20210;-83
2021/08/28 10:57:40;;;;;;;0.67;0.47;;;19.30;99.90;;;;;;5066847;28;20185;-82
2021/08/28 11:00:18;;;;;;;0.27;0.27;;;19.40;99.90;;;;;;5076432;28;20173;-82
2021/08/28 11:03:01;;;;;;;0.10;0.10;;;19.40;99.90;;;;;;5076578;28;20201;-82
2021/08/28 11:05:33;;;;;;;0.20;0.20;;;19.50;99.90;;;;;;5075399;28;20186;-83
2021/08/28 11:08:15;;;;;;;0.30;0.30;;;19.60;99.90;;;;;;5077701;28;20181;-83
2021/08/28 11:10:41;;;;;;;0.10;0.10;;;19.70;99.90;;;;;;5077820;28;20189;-84
2021/08/28 11:13:07;;;;;;;0.20;0.20;;;19.80;99.90;;;;;;5074215;28;20208;-83
2021/08/28 11:15:32;;;;;;;0.17;0.17;;;19.80;99.90;;;;;;5074790;28;20583;-83
2021/08/28 11:18:01;;;;;;;0.33;0.20;;;19.80;99.90;;;;;;5076043;28;20260;-82
2021/08/28 11:20:35;;;;;;;0.10;0.10;;;19.80;99.90;;;;;;5078193;28;20169;-82
2021/08/28 11:23:15;;;;;;;0.40;0.40;;;19.90;99.90;;;;;;5076352;28;20657;-83
2021/08/28 11:25:49;;;;;;;0.20;0.20;;;19.90;99.90;;;;;;5075713;28;20207;-83
2021/08/28 11:28:19;;;;;;;0.23;0.23;;;19.90;99.90;;;;;;5075172;28;20197;-82
2021/08/28 11:30:44;;;;;;;0.13;0.13;;;20.00;99.90;;;;;;5075828;28;20212;-82
2021/08/28 11:33:20;;;;;;;0.20;0.20;;;20.00;99.90;;;;;;5076182;28;20225;-83
2021/08/28 11:35:52;;;;;;;0.40;0.30;;;19.90;99.90;;;;;;5075936;28;20178;-82
2021/08/28 11:38:24;;;;;;;0.77;0.50;;;19.90;99.90;;;;;;5074396;28;20181;-83
2021/08/28 11:41:01;;;;;;;0.30;0.30;;;19.60;99.90;;;;;;5074952;28;20280;-82
2021/08/28 11:43:32;;;;;;;0.10;0.10;;;19.50;99.90;;;;;;5076627;28;20177;-83
2021/08/28 11:46:23;;;;;;;1.47;0.23;;;19.40;99.90;;;;;;5076025;28;20238;-83
2021/08/28 11:48:50;;;;;;;0.23;0.23;;;19.40;99.90;;;;;;5077045;28;20198;-82
2021/08/28 11:51:19;;;;;;;0.40;0.40;;;19.20;99.90;;;;;;5077014;28;20204;-83
2021/08/28 11:53:50;;;;;;;0.20;0.20;;;18.50;99.90;;;;;;5075761;28;20695;-82
2021/08/28 11:56:22;;;;;;;0.30;0.30;;;18.00;99.90;;;;;;5073981;28;20185;-83
2021/08/28 11:58:50;;;;;;;0.10;0.10;;;18.10;99.90;;;;;;5073882;28;20181;-83
2021/08/28 12:01:29;;;;;;;0.20;0.20;;;18.10;99.90;;;;;;5076147;28;20197;-83
2021/08/28 12:03:57;;;;;;;0.30;0.30;;;18.30;99.90;;;;;;5075860;28;20191;-83
2021/08/28 12:06:24;;;;;;;0.10;0.10;;;18.30;99.90;;;;;;5074746;28;20181;-83
2021/08/28 12:08:50;;;;;;;0.20;0.20;;;18.40;99.90;;;;;;5075458;28;20185;-82
2021/08/28 12:11:16;;;;;;;0.20;0.20;;;18.50;99.90;;;;;;5074837;28;20197;-83
2021/08/28 12:13:53;;;;;;;0.23;0.23;;;18.70;99.90;;;;;;5074249;28;20209;-83
2021/08/28 12:16:24;;;;;;;0.30;0.30;;;18.80;99.90;;;;;;5074226;28;20213;-83
2021/08/28 12:19:19;;;;;;;0.20;0.20;;;19.00;99.90;;;;;;5075380;28;20180;-82
2021/08/28 12:21:45;;;;;;;0.10;0.10;;;19.10;99.90;;;;;;5065745;28;20213;-82
2021/08/28 12:24:29;;;;;;;0.10;0.10;;;19.20;99.90;;;;;;5072504;28;20710;-83
2021/08/28 12:26:56;;;;;;;0.20;0.20;;;19.20;99.90;;;;;;5072991;28;20204;-83
2021/08/28 12:29:31;;;;;;;0.30;0.30;;;19.30;99.90;;;;;;5074134;28;20239;-83
2021/08/28 12:31:59;;;;;;;0.10;0.10;;;19.50;99.90;;;;;;5074116;28;20208;-83
2021/08/28 12:34:30;;;;;;;0.27;0.27;;;19.60;99.90;;;;;;5074523;28;20268;-83
2021/08/28 12:36:58;;;;;;;0.40;0.40;;;19.80;99.90;;;;;;5073700;28;20181;-83
2021/08/28 12:39:24;;;;;;;0.33;0.33;;;19.90;99.90;;;;;;5071883;28;20628;-82
2021/08/28 12:41:51;;;;;;;0.27;0.27;;;20.10;99.90;;;;;;5067643;28;20719;-82
2021/08/28 12:44:17;;;;;;;0.40;0.30;;;20.10;99.90;;;;;;5074192;28;20657;-83
2021/08/28 12:46:47;;;;;;;0.10;0.10;;;20.30;99.90;;;;;;5073878;28;20186;-83
2021/08/28 12:49:12;;;;;;;1.53;0.33;;;20.50;99.90;;;;;;5073971;28;20207;-83
2021/08/28 12:51:47;;;;;;;0.57;0.57;;;20.70;99.90;;;;;;5071884;28;20228;-83